Terminal Aerodrome Forecast
Issued by NWS

Home | Current Version | Previous Version | Text Only | Print | Product List | Glossary On
Versions: 1 2 3 4 5 6 7 8 9 10 11 12 13 14
000
FTUS43 KIWX 230900 AAA
TAFSBN
TAF AMD
KSBN 230906Z 2309/2406 27010KT P6SM OVC020
     FM231000 35012KT P6SM OVC015
      TEMPO 2310/2312 OVC008
     FM231500 35015G20KT P6SM SCT025
     FM240000 36008KT P6SM SKC=

USA.gov is the U.S. government's official web portal to all federal, state and local government web resources and services.